sensor_id;sensor_type;location;lat;lon;timestamp;P1;P2;P0
55473;PMS5003;65220;52.214;0.116;2023-06-14T00:01:36;7;6;
55473;PMS5003;65220;52.214;0.116;2023-06-14T00:04:02;5;5;
55473;PMS5003;65220;52.214;0.116;2023-06-14T00:06:28;6;6;
55473;PMS5003;65220;52.214;0.116;2023-06-14T00:08:54;8;5;
55473;PMS5003;65220;52.214;0.116;2023-06-14T00:11:19;4;3;
55473;PMS5003;65220;52.214;0.116;2023-06-14T00:13:44;5;5;
55473;PMS5003;65220;52.214;0.116;2023-06-14T00:16:09;6;6;
55473;PMS5003;65220;52.214;0.116;2023-06-14T00:18:35;4;4;
55473;PMS5003;65220;52.214;0.116;2023-06-14T00:21:00;9;7;
55473;PMS5003;65220;52.214;0.116;2023-06-14T00:23:25;6;6;
55473;PMS5003;65220;52.214;0.116;2023-06-14T00:25:50;3;3;
55473;PMS5003;65220;52.214;0.116;2023-06-14T00:28:15;4;4;
55473;PMS5003;65220;52.214;0.116;2023-06-14T00:30:41;5;5;
55473;PMS5003;65220;52.214;0.116;2023-06-14T00:33:06;6;6;
55473;PMS5003;65220;52.214;0.116;2023-06-14T00:35:31;7;5;
55473;PMS5003;65220;52.214;0.116;2023-06-14T00:37:56;6;5;
55473;PMS5003;65220;52.214;0.116;2023-06-14T00:40:22;5;5;
55473;PMS5003;65220;52.214;0.116;2023-06-14T00:42:47;4;4;
55473;PMS5003;65220;52.214;0.116;2023-06-14T00:45:12;4;4;
55473;PMS5003;65220;52.214;0.116;2023-06-14T00:47:37;4;4;
55473;PMS5003;65220;52.214;0.116;2023-06-14T00:50:03;5;5;
55473;PMS5003;65220;52.214;0.116;2023-06-14T00:52:28;6;5;
55473;PMS5003;65220;52.214;0.116;2023-06-14T00:54:53;8;7;
55473;PMS5003;65220;52.214;0.116;2023-06-14T00:57:18;5;5;
55473;PMS5003;65220;52.214;0.116;2023-06-14T00:59:44;9;6;
55473;PMS5003;65220;52.214;0.116;2023-06-14T01:02:08;5;5;
55473;PMS5003;65220;52.214;0.116;2023-06-14T01:04:34;6;6;
55473;PMS5003;65220;52.214;0.116;2023-06-14T01:07:00;5;4;
55473;PMS5003;65220;52.214;0.116;2023-06-14T01:09:26;6;5;
55473;PMS5003;65220;52.214;0.116;2023-06-14T01:11:50;5;5;
55473;PMS5003;65220;52.214;0.116;2023-06-14T01:14:15;5;5;
55473;PMS5003;65220;52.214;0.116;2023-06-14T01:16:40;6;6;
55473;PMS5003;65220;52.214;0.116;2023-06-14T01:19:06;6;5;
55473;PMS5003;65220;52.214;0.116;2023-06-14T01:21:31;7;5;
55473;PMS5003;65220;52.214;0.116;2023-06-14T01:23:56;5;5;
55473;PMS5003;65220;52.214;0.116;2023-06-14T01:26:22;7;6;
55473;PMS5003;65220;52.214;0.116;2023-06-14T01:28:47;5;5;
55473;PMS5003;65220;52.214;0.116;2023-06-14T01:31:12;7;6;
55473;PMS5003;65220;52.214;0.116;2023-06-14T01:33:37;6;6;
55473;PMS5003;65220;52.214;0.116;2023-06-14T01:36:03;5;5;
55473;PMS5003;65220;52.214;0.116;2023-06-14T01:38:28;6;5;
55473;PMS5003;65220;52.214;0.116;2023-06-14T01:40:54;6;6;
55473;PMS5003;65220;52.214;0.116;2023-06-14T01:43:18;5;5;
55473;PMS5003;65220;52.214;0.116;2023-06-14T01:45:44;5;5;
55473;PMS5003;65220;52.214;0.116;2023-06-14T01:48:09;5;5;
55473;PMS5003;65220;52.214;0.116;2023-06-14T01:50:34;6;6;
55473;PMS5003;65220;52.214;0.116;2023-06-14T01:52:59;6;5;
55473;PMS5003;65220;52.214;0.116;2023-06-14T01:55:24;6;6;
55473;PMS5003;65220;52.214;0.116;2023-06-14T01:57:49;6;5;
55473;PMS5003;65220;52.214;0.116;2023-06-14T02:00:15;9;8;
55473;PMS5003;65220;52.214;0.116;2023-06-14T02:02:40;6;6;
55473;PMS5003;65220;52.214;0.116;2023-06-14T02:05:05;7;4;
55473;PMS5003;65220;52.214;0.116;2023-06-14T02:07:31;7;7;
55473;PMS5003;65220;52.214;0.116;2023-06-14T02:09:56;7;6;
55473;PMS5003;65220;52.214;0.116;2023-06-14T02:12:21;5;5;
55473;PMS5003;65220;52.214;0.116;2023-06-14T02:14:46;6;6;
55473;PMS5003;65220;52.214;0.116;2023-06-14T02:17:12;4;4;
55473;PMS5003;65220;52.214;0.116;2023-06-14T02:19:37;4;4;
55473;PMS5003;65220;52.214;0.116;2023-06-14T02:22:02;4;4;
55473;PMS5003;65220;52.214;0.116;2023-06-14T02:24:27;4;4;
55473;PMS5003;65220;52.214;0.116;2023-06-14T02:26:52;10;7;
55473;PMS5003;65220;52.214;0.116;2023-06-14T02:29:18;5;5;
55473;PMS5003;65220;52.214;0.116;2023-06-14T02:31:43;8;6;
55473;PMS5003;65220;52.214;0.116;2023-06-14T02:34:08;7;6;
55473;PMS5003;65220;52.214;0.116;2023-06-14T02:36:33;8;6;
55473;PMS5003;65220;52.214;0.116;2023-06-14T02:38:58;7;5;
55473;PMS5003;65220;52.214;0.116;2023-06-14T02:41:24;4;4;
55473;PMS5003;65220;52.214;0.116;2023-06-14T02:43:49;5;5;
55473;PMS5003;65220;52.214;0.116;2023-06-14T02:46:14;6;6;
55473;PMS5003;65220;52.214;0.116;2023-06-14T02:48:39;5;5;
55473;PMS5003;65220;52.214;0.116;2023-06-14T02:51:05;5;5;
55473;PMS5003;65220;52.214;0.116;2023-06-14T02:53:30;7;6;
55473;PMS5003;65220;52.214;0.116;2023-06-14T02:55:55;5;5;
55473;PMS5003;65220;52.214;0.116;2023-06-14T02:58:20;7;6;
55473;PMS5003;65220;52.214;0.116;2023-06-14T03:00:45;4;4;
55473;PMS5003;65220;52.214;0.116;2023-06-14T03:03:11;7;7;
55473;PMS5003;65220;52.214;0.116;2023-06-14T03:05:36;5;5;
55473;PMS5003;65220;52.214;0.116;2023-06-14T03:08:01;7;7;
55473;PMS5003;65220;52.214;0.116;2023-06-14T03:10:26;6;6;
55473;PMS5003;65220;52.214;0.116;2023-06-14T03:12:51;4;4;
55473;PMS5003;65220;52.214;0.116;2023-06-14T03:15:17;7;7;
55473;PMS5003;65220;52.214;0.116;2023-06-14T03:17:42;7;7;
55473;PMS5003;65220;52.214;0.116;2023-06-14T03:20:07;3;3;
55473;PMS5003;65220;52.214;0.116;2023-06-14T03:22:48;8;6;
55473;PMS5003;65220;52.214;0.116;2023-06-14T03:24:57;7;6;
55473;PMS5003;65220;52.214;0.116;2023-06-14T03:27:23;6;6;
55473;PMS5003;65220;52.214;0.116;2023-06-14T03:29:48;7;7;
55473;PMS5003;65220;52.214;0.116;2023-06-14T03:32:13;8;6;
55473;PMS5003;65220;52.214;0.116;2023-06-14T03:34:39;9;6;
55473;PMS5003;65220;52.214;0.116;2023-06-14T03:37:04;11;11;
55473;PMS5003;65220;52.214;0.116;2023-06-14T03:39:29;7;7;
55473;PMS5003;65220;52.214;0.116;2023-06-14T03:41:55;6;6;
55473;PMS5003;65220;52.214;0.116;2023-06-14T03:44:20;6;6;
55473;PMS5003;65220;52.214;0.116;2023-06-14T03:46:45;7;5;
55473;PMS5003;65220;52.214;0.116;2023-06-14T03:49:11;6;5;
55473;PMS5003;65220;52.214;0.116;2023-06-14T03:51:36;5;5;
55473;PMS5003;65220;52.214;0.116;2023-06-14T03:54:01;8;8;
55473;PMS5003;65220;52.214;0.116;2023-06-14T03:56:26;11;7;
55473;PMS5003;65220;52.214;0.116;2023-06-14T03:58:52;11;9;
55473;PMS5003;65220;52.214;0.116;2023-06-14T04:01:17;8;8;
55473;PMS5003;65220;52.214;0.116;2023-06-14T04:03:42;9;7;
55473;PMS5003;65220;52.214;0.116;2023-06-14T04:06:07;5;4;
55473;PMS5003;65220;52.214;0.116;2023-06-14T04:08:33;6;6;
55473;PMS5003;65220;52.214;0.116;2023-06-14T04:10:58;7;7;
55473;PMS5003;65220;52.214;0.116;2023-06-14T04:13:23;7;7;
55473;PMS5003;65220;52.214;0.116;2023-06-14T04:15:48;6;6;
55473;PMS5003;65220;52.214;0.116;2023-06-14T04:18:14;5;5;
55473;PMS5003;65220;52.214;0.116;2023-06-14T04:20:39;7;5;
55473;PMS5003;65220;52.214;0.116;2023-06-14T04:23:11;6;6;
55473;PMS5003;65220;52.214;0.116;2023-06-14T04:25:29;7;6;
55473;PMS5003;65220;52.214;0.116;2023-06-14T04:27:54;8;8;
55473;PMS5003;65220;52.214;0.116;2023-06-14T04:30:20;7;7;
55473;PMS5003;65220;52.214;0.116;2023-06-14T04:32:45;10;10;
55473;PMS5003;65220;52.214;0.116;2023-06-14T04:35:10;6;6;
55473;PMS5003;65220;52.214;0.116;2023-06-14T04:37:36;7;7;
55473;PMS5003;65220;52.214;0.116;2023-06-14T04:40:00;9;8;
55473;PMS5003;65220;52.214;0.116;2023-06-14T04:42:26;7;7;
55473;PMS5003;65220;52.214;0.116;2023-06-14T04:44:51;7;7;
55473;PMS5003;65220;52.214;0.116;2023-06-14T04:47:16;7;6;
55473;PMS5003;65220;52.214;0.116;2023-06-14T04:49:42;7;7;
55473;PMS5003;65220;52.214;0.116;2023-06-14T04:52:07;7;7;
55473;PMS5003;65220;52.214;0.116;2023-06-14T04:54:32;9;7;
55473;PMS5003;65220;52.214;0.116;2023-06-14T04:56:57;7;7;
55473;PMS5003;65220;52.214;0.116;2023-06-14T04:59:23;10;9;
55473;PMS5003;65220;52.214;0.116;2023-06-14T05:01:48;9;9;
55473;PMS5003;65220;52.214;0.116;2023-06-14T05:04:14;4;4;
55473;PMS5003;65220;52.214;0.116;2023-06-14T05:06:39;7;6;
55473;PMS5003;65220;52.214;0.116;2023-06-14T05:09:04;7;6;
55473;PMS5003;65220;52.214;0.116;2023-06-14T05:11:29;9;8;
55473;PMS5003;65220;52.214;0.116;2023-06-14T05:13:55;6;6;
55473;PMS5003;65220;52.214;0.116;2023-06-14T05:16:20;5;5;
55473;PMS5003;65220;52.214;0.116;2023-06-14T05:18:45;7;7;
55473;PMS5003;65220;52.214;0.116;2023-06-14T05:21:10;7;7;
55473;PMS5003;65220;52.214;0.116;2023-06-14T05:23:36;7;5;
55473;PMS5003;65220;52.214;0.116;2023-06-14T05:26:01;7;7;
55473;PMS5003;65220;52.214;0.116;2023-06-14T05:28:26;11;8;
55473;PMS5003;65220;52.214;0.116;2023-06-14T05:30:52;8;7;
55473;PMS5003;65220;52.214;0.116;2023-06-14T05:33:17;6;6;
55473;PMS5003;65220;52.214;0.116;2023-06-14T05:35:42;9;7;
55473;PMS5003;65220;52.214;0.116;2023-06-14T05:38:07;10;8;
55473;PMS5003;65220;52.214;0.116;2023-06-14T05:40:33;8;6;
55473;PMS5003;65220;52.214;0.116;2023-06-14T05:42:58;6;6;
55473;PMS5003;65220;52.214;0.116;2023-06-14T05:45:23;8;7;
55473;PMS5003;65220;52.214;0.116;2023-06-14T05:47:48;5;5;
55473;PMS5003;65220;52.214;0.116;2023-06-14T05:50:13;6;6;
55473;PMS5003;65220;52.214;0.116;2023-06-14T05:52:39;7;7;
55473;PMS5003;65220;52.214;0.116;2023-06-14T05:55:04;7;6;
55473;PMS5003;65220;52.214;0.116;2023-06-14T05:57:29;9;8;
55473;PMS5003;65220;52.214;0.116;2023-06-14T05:59:54;8;8;
55473;PMS5003;65220;52.214;0.116;2023-06-14T06:02:20;8;7;
55473;PMS5003;65220;52.214;0.116;2023-06-14T06:04:45;5;5;
55473;PMS5003;65220;52.214;0.116;2023-06-14T06:07:11;6;6;
55473;PMS5003;65220;52.214;0.116;2023-06-14T06:09:36;11;10;
55473;PMS5003;65220;52.214;0.116;2023-06-14T06:12:01;7;7;
55473;PMS5003;65220;52.214;0.116;2023-06-14T06:14:26;10;9;
55473;PMS5003;65220;52.214;0.116;2023-06-14T06:16:52;6;6;
55473;PMS5003;65220;52.214;0.116;2023-06-14T06:19:17;7;6;
55473;PMS5003;65220;52.214;0.116;2023-06-14T06:21:42;6;6;
55473;PMS5003;65220;52.214;0.116;2023-06-14T06:24:07;7;6;
55473;PMS5003;65220;52.214;0.116;2023-06-14T06:26:32;5;5;
55473;PMS5003;65220;52.214;0.116;2023-06-14T06:28:58;5;5;
55473;PMS5003;65220;52.214;0.116;2023-06-14T06:31:23;10;9;
55473;PMS5003;65220;52.214;0.116;2023-06-14T06:33:49;11;10;
55473;PMS5003;65220;52.214;0.116;2023-06-14T06:36:14;7;6;
55473;PMS5003;65220;52.214;0.116;2023-06-14T06:38:41;8;7;
55473;PMS5003;65220;52.214;0.116;2023-06-14T06:41:05;8;7;
55473;PMS5003;65220;52.214;0.116;2023-06-14T06:43:31;7;7;
55473;PMS5003;65220;52.214;0.116;2023-06-14T06:45:56;10;8;
55473;PMS5003;65220;52.214;0.116;2023-06-14T06:48:21;12;10;
55473;PMS5003;65220;52.214;0.116;2023-06-14T06:50:47;9;6;
55473;PMS5003;65220;52.214;0.116;2023-06-14T06:53:12;6;6;
55473;PMS5003;65220;52.214;0.116;2023-06-14T06:55:37;7;7;
55473;PMS5003;65220;52.214;0.116;2023-06-14T06:58:03;10;7;
55473;PMS5003;65220;52.214;0.116;2023-06-14T07:00:28;9;8;
55473;PMS5003;65220;52.214;0.116;2023-06-14T07:02:53;8;8;
55473;PMS5003;65220;52.214;0.116;2023-06-14T07:05:18;9;8;
55473;PMS5003;65220;52.214;0.116;2023-06-14T07:07:43;7;6;
55473;PMS5003;65220;52.214;0.116;2023-06-14T07:10:09;9;9;
55473;PMS5003;65220;52.214;0.116;2023-06-14T07:12:34;9;9;
55473;PMS5003;65220;52.214;0.116;2023-06-14T07:14:59;9;8;
55473;PMS5003;65220;52.214;0.116;2023-06-14T07:17:24;8;8;
55473;PMS5003;65220;52.214;0.116;2023-06-14T07:19:49;9;8;
55473;PMS5003;65220;52.214;0.116;2023-06-14T07:22:15;11;10;
55473;PMS5003;65220;52.214;0.116;2023-06-14T07:24:40;7;7;
55473;PMS5003;65220;52.214;0.116;2023-06-14T07:27:06;8;7;
55473;PMS5003;65220;52.214;0.116;2023-06-14T07:29:31;8;7;
55473;PMS5003;65220;52.214;0.116;2023-06-14T07:31:56;9;7;
55473;PMS5003;65220;52.214;0.116;2023-06-14T07:34:21;11;7;
55473;PMS5003;65220;52.214;0.116;2023-06-14T07:36:47;8;8;
55473;PMS5003;65220;52.214;0.116;2023-06-14T07:39:13;8;6;
55473;PMS5003;65220;52.214;0.116;2023-06-14T07:41:38;8;8;
55473;PMS5003;65220;52.214;0.116;2023-06-14T07:44:04;13;11;
55473;PMS5003;65220;52.214;0.116;2023-06-14T07:46:30;21;17;
55473;PMS5003;65220;52.214;0.116;2023-06-14T07:48:55;16;16;
55473;PMS5003;65220;52.214;0.116;2023-06-14T07:51:20;19;16;
55473;PMS5003;65220;52.214;0.116;2023-06-14T07:53:46;19;18;
55473;PMS5003;65220;52.214;0.116;2023-06-14T07:56:11;11;11;
55473;PMS5003;65220;52.214;0.116;2023-06-14T07:58:37;13;13;
55473;PMS5003;65220;52.214;0.116;2023-06-14T08:01:02;11;10;
55473;PMS5003;65220;52.214;0.116;2023-06-14T08:03:28;9;9;
55473;PMS5003;65220;52.214;0.116;2023-06-14T08:05:53;12;11;
55473;PMS5003;65220;52.214;0.116;2023-06-14T08:08:18;14;13;
55473;PMS5003;65220;52.214;0.116;2023-06-14T08:10:43;10;10;
55473;PMS5003;65220;52.214;0.116;2023-06-14T08:13:09;11;9;
55473;PMS5003;65220;52.214;0.116;2023-06-14T08:15:34;11;10;
55473;PMS5003;65220;52.214;0.116;2023-06-14T08:17:59;13;12;
55473;PMS5003;65220;52.214;0.116;2023-06-14T08:20:24;10;10;
55473;PMS5003;65220;52.214;0.116;2023-06-14T08:22:49;12;11;
55473;PMS5003;65220;52.214;0.116;2023-06-14T08:25:15;9;8;
55473;PMS5003;65220;52.214;0.116;2023-06-14T08:27:41;10;8;
55473;PMS5003;65220;52.214;0.116;2023-06-14T08:30:07;8;8;
55473;PMS5003;65220;52.214;0.116;2023-06-14T08:32:32;15;13;
55473;PMS5003;65220;52.214;0.116;2023-06-14T08:34:57;11;10;
55473;PMS5003;65220;52.214;0.116;2023-06-14T08:37:22;11;8;
55473;PMS5003;65220;52.214;0.116;2023-06-14T08:39:48;9;9;
55473;PMS5003;65220;52.214;0.116;2023-06-14T08:42:13;14;12;
55473;PMS5003;65220;52.214;0.116;2023-06-14T08:44:38;12;12;
55473;PMS5003;65220;52.214;0.116;2023-06-14T08:47:04;11;8;
55473;PMS5003;65220;52.214;0.116;2023-06-14T08:49:29;11;11;
55473;PMS5003;65220;52.214;0.116;2023-06-14T08:51:56;9;8;
55473;PMS5003;65220;52.214;0.116;2023-06-14T08:54:20;10;10;
55473;PMS5003;65220;52.214;0.116;2023-06-14T08:56:45;8;7;
55473;PMS5003;65220;52.214;0.116;2023-06-14T08:59:11;11;8;
55473;PMS5003;65220;52.214;0.116;2023-06-14T09:01:37;13;10;
55473;PMS5003;65220;52.214;0.116;2023-06-14T09:04:02;13;12;
55473;PMS5003;65220;52.214;0.116;2023-06-14T09:06:27;9;9;
55473;PMS5003;65220;52.214;0.116;2023-06-14T09:08:54;9;9;
55473;PMS5003;65220;52.214;0.116;2023-06-14T09:11:19;10;9;
55473;PMS5003;65220;52.214;0.116;2023-06-14T09:13:45;9;8;
55473;PMS5003;65220;52.214;0.116;2023-06-14T09:16:10;11;11;
55473;PMS5003;65220;52.214;0.116;2023-06-14T09:18:36;11;11;
55473;PMS5003;65220;52.214;0.116;2023-06-14T09:21:01;8;8;
55473;PMS5003;65220;52.214;0.116;2023-06-14T09:23:26;9;9;
55473;PMS5003;65220;52.214;0.116;2023-06-14T09:25:52;9;9;
55473;PMS5003;65220;52.214;0.116;2023-06-14T09:28:17;12;12;
55473;PMS5003;65220;52.214;0.116;2023-06-14T09:30:42;10;9;
55473;PMS5003;65220;52.214;0.116;2023-06-14T09:33:08;11;11;
55473;PMS5003;65220;52.214;0.116;2023-06-14T09:35:33;9;9;
55473;PMS5003;65220;52.214;0.116;2023-06-14T09:37:59;10;8;
55473;PMS5003;65220;52.214;0.116;2023-06-14T09:40:24;9;8;
55473;PMS5003;65220;52.214;0.116;2023-06-14T09:42:49;9;9;
55473;PMS5003;65220;52.214;0.116;2023-06-14T09:45:14;11;10;
55473;PMS5003;65220;52.214;0.116;2023-06-14T09:47:39;12;10;
55473;PMS5003;65220;52.214;0.116;2023-06-14T09:50:06;11;10;
55473;PMS5003;65220;52.214;0.116;2023-06-14T09:52:31;11;10;
55473;PMS5003;65220;52.214;0.116;2023-06-14T09:54:57;11;9;
55473;PMS5003;65220;52.214;0.116;2023-06-14T09:57:22;10;9;
55473;PMS5003;65220;52.214;0.116;2023-06-14T09:59:48;14;10;
55473;PMS5003;65220;52.214;0.116;2023-06-14T10:02:17;11;11;
55473;PMS5003;65220;52.214;0.116;2023-06-14T10:04:38;12;11;
55473;PMS5003;65220;52.214;0.116;2023-06-14T10:07:04;10;10;
55473;PMS5003;65220;52.214;0.116;2023-06-14T10:09:29;12;10;
55473;PMS5003;65220;52.214;0.116;2023-06-14T10:11:55;9;8;
55473;PMS5003;65220;52.214;0.116;2023-06-14T10:14:20;10;9;
55473;PMS5003;65220;52.214;0.116;2023-06-14T10:16:47;7;7;
55473;PMS5003;65220;52.214;0.116;2023-06-14T10:19:11;11;8;
55473;PMS5003;65220;52.214;0.116;2023-06-14T10:21:37;7;7;
55473;PMS5003;65220;52.214;0.116;2023-06-14T10:24:04;10;10;
55473;PMS5003;65220;52.214;0.116;2023-06-14T10:26:28;10;10;
55473;PMS5003;65220;52.214;0.116;2023-06-14T10:28:56;10;10;
55473;PMS5003;65220;52.214;0.116;2023-06-14T10:31:19;10;10;
55473;PMS5003;65220;52.214;0.116;2023-06-14T10:33:49;12;10;
55473;PMS5003;65220;52.214;0.116;2023-06-14T10:36:10;11;9;
55473;PMS5003;65220;52.214;0.116;2023-06-14T10:38:36;10;9;
55473;PMS5003;65220;52.214;0.116;2023-06-14T10:41:00;11;9;
55473;PMS5003;65220;52.214;0.116;2023-06-14T10:43:26;8;8;
55473;PMS5003;65220;52.214;0.116;2023-06-14T10:46:23;9;9;
55473;PMS5003;65220;52.214;0.116;2023-06-14T10:48:26;8;8;
55473;PMS5003;65220;52.214;0.116;2023-06-14T10:50:42;10;7;
55473;PMS5003;65220;52.214;0.116;2023-06-14T10:53:21;9;9;
55473;PMS5003;65220;52.214;0.116;2023-06-14T10:55:34;11;8;
55473;PMS5003;65220;52.214;0.116;2023-06-14T10:57:57;10;9;
55473;PMS5003;65220;52.214;0.116;2023-06-14T11:00:23;9;9;
55473;PMS5003;65220;52.214;0.116;2023-06-14T11:02:51;13;8;
55473;PMS5003;65220;52.214;0.116;2023-06-14T11:05:14;7;7;
55473;PMS5003;65220;52.214;0.116;2023-06-14T11:07:41;10;10;
55473;PMS5003;65220;52.214;0.116;2023-06-14T11:10:05;10;10;
55473;PMS5003;65220;52.214;0.116;2023-06-14T11:12:30;11;11;
55473;PMS5003;65220;52.214;0.116;2023-06-14T11:14:55;11;10;
55473;PMS5003;65220;52.214;0.116;2023-06-14T11:17:20;12;12;
55473;PMS5003;65220;52.214;0.116;2023-06-14T11:19:46;32;29;
55473;PMS5003;65220;52.214;0.116;2023-06-14T11:22:11;57;56;
55473;PMS5003;65220;52.214;0.116;2023-06-14T11:24:36;46;42;
55473;PMS5003;65220;52.214;0.116;2023-06-14T11:27:02;111;106;
55473;PMS5003;65220;52.214;0.116;2023-06-14T11:29:28;97;89;
55473;PMS5003;65220;52.214;0.116;2023-06-14T11:31:52;71;60;
55473;PMS5003;65220;52.214;0.116;2023-06-14T11:34:18;66;56;
55473;PMS5003;65220;52.214;0.116;2023-06-14T11:36:43;51;45;
55473;PMS5003;65220;52.214;0.116;2023-06-14T11:39:08;38;38;
55473;PMS5003;65220;52.214;0.116;2023-06-14T11:41:36;41;36;
55473;PMS5003;65220;52.214;0.116;2023-06-14T11:44:00;37;33;
55473;PMS5003;65220;52.214;0.116;2023-06-14T11:46:26;33;30;
55473;PMS5003;65220;52.214;0.116;2023-06-14T11:48:51;28;24;
55473;PMS5003;65220;52.214;0.116;2023-06-14T11:51:18;26;23;
55473;PMS5003;65220;52.214;0.116;2023-06-14T11:53:43;23;22;
55473;PMS5003;65220;52.214;0.116;2023-06-14T11:56:08;22;21;
55473;PMS5003;65220;52.214;0.116;2023-06-14T11:58:34;29;23;
55473;PMS5003;65220;52.214;0.116;2023-06-14T12:01:00;19;17;
55473;PMS5003;65220;52.214;0.116;2023-06-14T12:03:25;22;18;
55473;PMS5003;65220;52.214;0.116;2023-06-14T12:05:50;15;15;
55473;PMS5003;65220;52.214;0.116;2023-06-14T12:08:16;17;16;
55473;PMS5003;65220;52.214;0.116;2023-06-14T12:10:42;14;11;
55473;PMS5003;65220;52.214;0.116;2023-06-14T12:13:07;17;13;
55473;PMS5003;65220;52.214;0.116;2023-06-14T12:15:32;14;13;
55473;PMS5003;65220;52.214;0.116;2023-06-14T12:17:58;13;13;
55473;PMS5003;65220;52.214;0.116;2023-06-14T12:20:28;11;11;
55473;PMS5003;65220;52.214;0.116;2023-06-14T12:22:51;11;11;
55473;PMS5003;65220;52.214;0.116;2023-06-14T12:25:23;11;11;
55473;PMS5003;65220;52.214;0.116;2023-06-14T12:27:40;15;12;
55473;PMS5003;65220;52.214;0.116;2023-06-14T12:30:06;13;11;
55473;PMS5003;65220;52.214;0.116;2023-06-14T12:32:30;10;10;
55473;PMS5003;65220;52.214;0.116;2023-06-14T12:34:56;13;13;
55473;PMS5003;65220;52.214;0.116;2023-06-14T12:37:21;12;12;
55473;PMS5003;65220;52.214;0.116;2023-06-14T12:39:46;9;9;
55473;PMS5003;65220;52.214;0.116;2023-06-14T12:42:12;12;12;
55473;PMS5003;65220;52.214;0.116;2023-06-14T12:44:37;11;11;
55473;PMS5003;65220;52.214;0.116;2023-06-14T12:47:03;12;10;
55473;PMS5003;65220;52.214;0.116;2023-06-14T12:49:29;10;10;
55473;PMS5003;65220;52.214;0.116;2023-06-14T12:51:54;11;10;
55473;PMS5003;65220;52.214;0.116;2023-06-14T12:54:19;11;11;
55473;PMS5003;65220;52.214;0.116;2023-06-14T12:56:45;12;11;
55473;PMS5003;65220;52.214;0.116;2023-06-14T12:59:10;11;11;
55473;PMS5003;65220;52.214;0.116;2023-06-14T13:01:37;10;10;
55473;PMS5003;65220;52.214;0.116;2023-06-14T13:04:00;10;10;
55473;PMS5003;65220;52.214;0.116;2023-06-14T13:06:25;11;10;
55473;PMS5003;65220;52.214;0.116;2023-06-14T13:08:51;13;13;
55473;PMS5003;65220;52.214;0.116;2023-06-14T13:11:16;11;10;
55473;PMS5003;65220;52.214;0.116;2023-06-14T13:13:42;16;11;
55473;PMS5003;65220;52.214;0.116;2023-06-14T13:16:07;13;12;
55473;PMS5003;65220;52.214;0.116;2023-06-14T13:18:32;15;15;
55473;PMS5003;65220;52.214;0.116;2023-06-14T13:20:58;14;13;
55473;PMS5003;65220;52.214;0.116;2023-06-14T13:23:23;13;11;
55473;PMS5003;65220;52.214;0.116;2023-06-14T13:25:48;14;14;
55473;PMS5003;65220;52.214;0.116;2023-06-14T13:28:13;12;12;
55473;PMS5003;65220;52.214;0.116;2023-06-14T13:30:39;13;13;
55473;PMS5003;65220;52.214;0.116;2023-06-14T13:33:04;12;12;
55473;PMS5003;65220;52.214;0.116;2023-06-14T13:35:30;12;11;
55473;PMS5003;65220;52.214;0.116;2023-06-14T13:37:55;13;12;
55473;PMS5003;65220;52.214;0.116;2023-06-14T13:40:20;12;12;
55473;PMS5003;65220;52.214;0.116;2023-06-14T13:42:45;15;14;
55473;PMS5003;65220;52.214;0.116;2023-06-14T13:45:11;16;14;
55473;PMS5003;65220;52.214;0.116;2023-06-14T13:47:37;12;12;
55473;PMS5003;65220;52.214;0.116;2023-06-14T13:50:03;13;13;
55473;PMS5003;65220;52.214;0.116;2023-06-14T13:52:27;10;9;
55473;PMS5003;65220;52.214;0.116;2023-06-14T13:54:53;15;14;
55473;PMS5003;65220;52.214;0.116;2023-06-14T13:57:18;13;13;
55473;PMS5003;65220;52.214;0.116;2023-06-14T13:59:43;12;12;
55473;PMS5003;65220;52.214;0.116;2023-06-14T14:02:09;11;11;
55473;PMS5003;65220;52.214;0.116;2023-06-14T14:04:35;13;13;
55473;PMS5003;65220;52.214;0.116;2023-06-14T14:07:01;12;12;
55473;PMS5003;65220;52.214;0.116;2023-06-14T14:09:26;11;11;
55473;PMS5003;65220;52.214;0.116;2023-06-14T14:11:51;14;12;
55473;PMS5003;65220;52.214;0.116;2023-06-14T14:14:17;13;13;
55473;PMS5003;65220;52.214;0.116;2023-06-14T14:16:42;13;13;
55473;PMS5003;65220;52.214;0.116;2023-06-14T14:19:08;13;13;
55473;PMS5003;65220;52.214;0.116;2023-06-14T14:21:34;13;13;
55473;PMS5003;65220;52.214;0.116;2023-06-14T14:23:59;15;14;
55473;PMS5003;65220;52.214;0.116;2023-06-14T14:26:25;16;13;
55473;PMS5003;65220;52.214;0.116;2023-06-14T14:28:50;15;15;
55473;PMS5003;65220;52.214;0.116;2023-06-14T14:31:15;13;13;
55473;PMS5003;65220;52.214;0.116;2023-06-14T14:33:40;14;13;
55473;PMS5003;65220;52.214;0.116;2023-06-14T14:36:06;13;12;
55473;PMS5003;65220;52.214;0.116;2023-06-14T14:38:31;13;12;
55473;PMS5003;65220;52.214;0.116;2023-06-14T14:40:56;17;16;
55473;PMS5003;65220;52.214;0.116;2023-06-14T14:43:22;15;13;
55473;PMS5003;65220;52.214;0.116;2023-06-14T14:45:47;17;17;
55473;PMS5003;65220;52.214;0.116;2023-06-14T14:48:13;14;12;
55473;PMS5003;65220;52.214;0.116;2023-06-14T14:50:38;15;12;
55473;PMS5003;65220;52.214;0.116;2023-06-14T14:53:03;15;14;
55473;PMS5003;65220;52.214;0.116;2023-06-14T14:55:28;13;13;
55473;PMS5003;65220;52.214;0.116;2023-06-14T14:57:54;15;15;
55473;PMS5003;65220;52.214;0.116;2023-06-14T15:00:19;18;13;
55473;PMS5003;65220;52.214;0.116;2023-06-14T15:02:45;12;12;
55473;PMS5003;65220;52.214;0.116;2023-06-14T15:05:10;14;13;
55473;PMS5003;65220;52.214;0.116;2023-06-14T15:07:36;15;15;
55473;PMS5003;65220;52.214;0.116;2023-06-14T15:10:09;13;13;
55473;PMS5003;65220;52.214;0.116;2023-06-14T15:12:26;16;16;
55473;PMS5003;65220;52.214;0.116;2023-06-14T15:14:51;18;15;
55473;PMS5003;65220;52.214;0.116;2023-06-14T15:17:17;12;11;
55473;PMS5003;65220;52.214;0.116;2023-06-14T15:19:42;11;11;
55473;PMS5003;65220;52.214;0.116;2023-06-14T15:22:08;12;12;
55473;PMS5003;65220;52.214;0.116;2023-06-14T15:24:33;14;14;
55473;PMS5003;65220;52.214;0.116;2023-06-14T15:26:58;14;12;
55473;PMS5003;65220;52.214;0.116;2023-06-14T15:29:23;14;14;
55473;PMS5003;65220;52.214;0.116;2023-06-14T15:31:48;15;11;
55473;PMS5003;65220;52.214;0.116;2023-06-14T15:34:14;13;13;
55473;PMS5003;65220;52.214;0.116;2023-06-14T15:36:40;16;16;
55473;PMS5003;65220;52.214;0.116;2023-06-14T15:39:05;16;16;
55473;PMS5003;65220;52.214;0.116;2023-06-14T15:41:30;12;12;
55473;PMS5003;65220;52.214;0.116;2023-06-14T15:43:55;13;12;
55473;PMS5003;65220;52.214;0.116;2023-06-14T15:46:21;13;13;
55473;PMS5003;65220;52.214;0.116;2023-06-14T15:48:46;13;13;
55473;PMS5003;65220;52.214;0.116;2023-06-14T15:51:11;16;14;
55473;PMS5003;65220;52.214;0.116;2023-06-14T15:53:36;14;14;
55473;PMS5003;65220;52.214;0.116;2023-06-14T15:56:01;14;12;
55473;PMS5003;65220;52.214;0.116;2023-06-14T15:58:27;15;15;
55473;PMS5003;65220;52.214;0.116;2023-06-14T16:00:52;12;12;
55473;PMS5003;65220;52.214;0.116;2023-06-14T16:03:17;18;15;
55473;PMS5003;65220;52.214;0.116;2023-06-14T16:05:42;17;15;
55473;PMS5003;65220;52.214;0.116;2023-06-14T16:08:08;15;13;
55473;PMS5003;65220;52.214;0.116;2023-06-14T16:10:34;12;11;
55473;PMS5003;65220;52.214;0.116;2023-06-14T16:12:59;15;14;
55473;PMS5003;65220;52.214;0.116;2023-06-14T16:15:24;12;12;
55473;PMS5003;65220;52.214;0.116;2023-06-14T16:17:49;16;14;
55473;PMS5003;65220;52.214;0.116;2023-06-14T16:20:14;15;13;
55473;PMS5003;65220;52.214;0.116;2023-06-14T16:22:40;14;14;